sensor_id;sensor_type;location;lat;lon;timestamp;pressure;altitude;pressure_sealevel;temperature;humidity
8627;BME280;4351;51.422;6.794;2023-02-26T00:01:39;101552.41;;;1.56;100.00
8627;BME280;4351;51.422;6.794;2023-02-26T00:04:08;101546.41;;;1.36;100.00
8627;BME280;4351;51.422;6.794;2023-02-26T00:06:37;101554.88;;;1.76;100.00
8627;BME280;4351;51.422;6.794;2023-02-26T00:09:24;101548.72;;;1.72;100.00
8627;BME280;4351;51.422;6.794;2023-02-26T00:11:53;101550.59;;;1.64;100.00
8627;BME280;4351;51.422;6.794;2023-02-26T00:14:22;101553.31;;;1.55;100.00
8627;BME280;4351;51.422;6.794;2023-02-26T00:16:57;101553.31;;;1.56;100.00
8627;BME280;4351;51.422;6.794;2023-02-26T00:19:33;101556.72;;;1.72;100.00
8627;BME280;4351;51.422;6.794;2023-02-26T00:22:01;101564.59;;;1.80;100.00
8627;BME280;4351;51.422;6.794;2023-02-26T00:24:29;101568.22;;;1.71;100.00
8627;BME280;4351;51.422;6.794;2023-02-26T00:26:57;101572.03;;;1.45;100.00
8627;BME280;4351;51.422;6.794;2023-02-26T00:29:26;101567.53;;;1.55;100.00
8627;BME280;4351;51.422;6.794;2023-02-26T00:31:56;101576.38;;;1.57;100.00
8627;BME280;4351;51.422;6.794;2023-02-26T00:34:24;101585.16;;;1.64;100.00
8627;BME280;4351;51.422;6.794;2023-02-26T00:37:04;101580.81;;;1.55;100.00
8627;BME280;4351;51.422;6.794;2023-02-26T00:39:39;101578.06;;;1.65;100.00
8627;BME280;4351;51.422;6.794;2023-02-26T00:42:11;101579.00;;;1.56;100.00
8627;BME280;4351;51.422;6.794;2023-02-26T00:44:40;101586.06;;;1.63;100.00
8627;BME280;4351;51.422;6.794;2023-02-26T00:47:17;101586.97;;;1.60;100.00
8627;BME280;4351;51.422;6.794;2023-02-26T00:49:59;101596.59;;;1.74;100.00
8627;BME280;4351;51.422;6.794;2023-02-26T00:52:34;101598.34;;;1.77;100.00
8627;BME280;4351;51.422;6.794;2023-02-26T00:55:06;101606.44;;;1.66;100.00
8627;BME280;4351;51.422;6.794;2023-02-26T00:57:34;101603.66;;;1.78;100.00
8627;BME280;4351;51.422;6.794;2023-02-26T01:00:03;101608.16;;;1.73;100.00
8627;BME280;4351;51.422;6.794;2023-02-26T01:02:36;101607.91;;;1.97;100.00
8627;BME280;4351;51.422;6.794;2023-02-26T01:05:06;101610.78;;;1.75;100.00
8627;BME280;4351;51.422;6.794;2023-02-26T01:07:39;101604.56;;;1.76;100.00
8627;BME280;4351;51.422;6.794;2023-02-26T01:10:08;101609.91;;;1.74;100.00
8627;BME280;4351;51.422;6.794;2023-02-26T01:12:37;101608.16;;;1.73;100.00
8627;BME280;4351;51.422;6.794;2023-02-26T01:15:06;101610.13;;;1.51;100.00
8627;BME280;4351;51.422;6.794;2023-02-26T01:17:41;101621.13;;;2.06;100.00
8627;BME280;4351;51.422;6.794;2023-02-26T01:20:15;101616.06;;;1.78;100.00
8627;BME280;4351;51.422;6.794;2023-02-26T01:22:49;101621.38;;;1.78;100.00
8627;BME280;4351;51.422;6.794;2023-02-26T01:25:23;101616.19;;;1.65;100.00
8627;BME280;4351;51.422;6.794;2023-02-26T01:27:53;101620.53;;;1.74;100.00
8627;BME280;4351;51.422;6.794;2023-02-26T01:30:23;101620.69;;;1.60;100.00
8627;BME280;4351;51.422;6.794;2023-02-26T01:32:58;101633.09;;;1.56;100.00
8627;BME280;4351;51.422;6.794;2023-02-26T01:35:40;101626.03;;;1.57;100.00
8627;BME280;4351;51.422;6.794;2023-02-26T01:38:17;101632.22;;;1.57;100.00
8627;BME280;4351;51.422;6.794;2023-02-26T01:41:09;101630.59;;;1.39;100.00
8627;BME280;4351;51.422;6.794;2023-02-26T01:43:46;101627.75;;;1.64;100.00
8627;BME280;4351;51.422;6.794;2023-02-26T01:46:21;101634.97;;;1.46;100.00
8627;BME280;4351;51.422;6.794;2023-02-26T01:48:54;101642.03;;;1.47;100.00
8627;BME280;4351;51.422;6.794;2023-02-26T01:51:41;101655.22;;;1.66;100.00
8627;BME280;4351;51.422;6.794;2023-02-26T01:54:10;101657.03;;;1.61;100.00
8627;BME280;4351;51.422;6.794;2023-02-26T01:56:38;101658.97;;;1.37;100.00
8627;BME280;4351;51.422;6.794;2023-02-26T01:59:08;101655.44;;;1.35;100.00
8627;BME280;4351;51.422;6.794;2023-02-26T02:01:38;101658.09;;;1.36;100.00
8627;BME280;4351;51.422;6.794;2023-02-26T02:04:10;101651.84;;;1.41;100.00
8627;BME280;4351;51.422;6.794;2023-02-26T02:06:39;101651.97;;;1.25;100.00
8627;BME280;4351;51.422;6.794;2023-02-26T02:09:08;101652.78;;;1.36;100.00
8627;BME280;4351;51.422;6.794;2023-02-26T02:11:39;101653.66;;;1.40;100.00
8627;BME280;4351;51.422;6.794;2023-02-26T02:14:22;101659.88;;;1.37;100.00
8627;BME280;4351;51.422;6.794;2023-02-26T02:16:54;101663.53;;;1.19;100.00
8627;BME280;4351;51.422;6.794;2023-02-26T02:19:42;101671.41;;;1.38;100.00
8627;BME280;4351;51.422;6.794;2023-02-26T02:22:35;101676.81;;;1.22;100.00
8627;BME280;4351;51.422;6.794;2023-02-26T02:25:18;101682.19;;;1.10;100.00
8627;BME280;4351;51.422;6.794;2023-02-26T02:27:55;101683.09;;;1.09;100.00
8627;BME280;4351;51.422;6.794;2023-02-26T02:30:34;101684.06;;;0.92;100.00
8627;BME280;4351;51.422;6.794;2023-02-26T02:33:12;101688.28;;;1.28;100.00
8627;BME280;4351;51.422;6.794;2023-02-26T02:35:43;101692.84;;;1.07;100.00
8627;BME280;4351;51.422;6.794;2023-02-26T02:38:17;101687.34;;;1.35;100.00
8627;BME280;4351;51.422;6.794;2023-02-26T02:40:49;101691.06;;;1.06;100.00
8627;BME280;4351;51.422;6.794;2023-02-26T02:43:22;101696.44;;;1.01;100.00
8627;BME280;4351;51.422;6.794;2023-02-26T02:45:55;101706.28;;;0.71;100.00
8627;BME280;4351;51.422;6.794;2023-02-26T02:48:32;101709.00;;;0.56;100.00
8627;BME280;4351;51.422;6.794;2023-02-26T02:51:04;101715.97;;;0.86;100.00
8627;BME280;4351;51.422;6.794;2023-02-26T02:53:36;101700.88;;;0.88;100.00
8627;BME280;4351;51.422;6.794;2023-02-26T02:56:10;101716.78;;;1.05;100.00
8627;BME280;4351;51.422;6.794;2023-02-26T02:58:55;101710.66;;;0.89;100.00
8627;BME280;4351;51.422;6.794;2023-02-26T03:01:26;101711.63;;;0.67;100.00
8627;BME280;4351;51.422;6.794;2023-02-26T03:04:00;101722.28;;;0.47;100.00
8627;BME280;4351;51.422;6.794;2023-02-26T03:06:29;101717.88;;;0.44;100.00
8627;BME280;4351;51.422;6.794;2023-02-26T03:08:59;101717.84;;;0.60;100.00
8627;BME280;4351;51.422;6.794;2023-02-26T03:11:27;101716.97;;;0.58;100.00
8627;BME280;4351;51.422;6.794;2023-02-26T03:13:55;101715.25;;;0.29;100.00
8627;BME280;4351;51.422;6.794;2023-02-26T03:16:45;101722.25;;;0.67;100.00
8627;BME280;4351;51.422;6.794;2023-02-26T03:19:21;101723.16;;;0.59;100.00
8627;BME280;4351;51.422;6.794;2023-02-26T03:21:57;101726.63;;;0.79;100.00
8627;BME280;4351;51.422;6.794;2023-02-26T03:24:49;101726.63;;;0.75;100.00
8627;BME280;4351;51.422;6.794;2023-02-26T03:27:22;101733.78;;;0.60;100.00
8627;BME280;4351;51.422;6.794;2023-02-26T03:29:57;101748.84;;;0.42;100.00
8627;BME280;4351;51.422;6.794;2023-02-26T03:32:33;101740.91;;;0.33;100.00
8627;BME280;4351;51.422;6.794;2023-02-26T03:35:08;101754.16;;;0.44;100.00
8627;BME280;4351;51.422;6.794;2023-02-26T03:37:39;101751.50;;;0.49;100.00
8627;BME280;4351;51.422;6.794;2023-02-26T03:40:11;101757.66;;;0.70;100.00
8627;BME280;4351;51.422;6.794;2023-02-26T03:42:45;101763.00;;;0.60;100.00
8627;BME280;4351;51.422;6.794;2023-02-26T03:45:18;101771.00;;;0.43;100.00
8627;BME280;4351;51.422;6.794;2023-02-26T03:47:50;101767.44;;;0.53;100.00
8627;BME280;4351;51.422;6.794;2023-02-26T03:50:26;101771.88;;;0.59;100.00
8627;BME280;4351;51.422;6.794;2023-02-26T03:53:21;101772.75;;;0.53;100.00
8627;BME280;4351;51.422;6.794;2023-02-26T03:56:05;101776.22;;;0.80;100.00
8627;BME280;4351;51.422;6.794;2023-02-26T03:58:44;101776.25;;;0.76;100.00
8627;BME280;4351;51.422;6.794;2023-02-26T04:01:29;101776.25;;;0.66;100.00
8627;BME280;4351;51.422;6.794;2023-02-26T04:04:03;101774.41;;;0.90;100.00
8627;BME280;4351;51.422;6.794;2023-02-26T04:06:35;101784.25;;;0.57;100.00
8627;BME280;4351;51.422;6.794;2023-02-26T04:09:04;101786.00;;;0.63;100.00
8627;BME280;4351;51.422;6.794;2023-02-26T04:11:35;101790.44;;;0.57;100.00
8627;BME280;4351;51.422;6.794;2023-02-26T04:14:05;101804.63;;;0.56;100.00
8627;BME280;4351;51.422;6.794;2023-02-26T04:16:37;101799.31;;;0.50;100.00
8627;BME280;4351;51.422;6.794;2023-02-26T04:19:06;101803.69;;;0.75;100.00
8627;BME280;4351;51.422;6.794;2023-02-26T04:21:38;101808.16;;;0.27;100.00
8627;BME280;4351;51.422;6.794;2023-02-26T04:24:07;101812.59;;;0.42;100.00
8627;BME280;4351;51.422;6.794;2023-02-26T04:26:35;101808.16;;;0.52;100.00
8627;BME280;4351;51.422;6.794;2023-02-26T04:29:04;101821.44;;;0.40;100.00
8627;BME280;4351;51.422;6.794;2023-02-26T04:31:33;101826.75;;;0.27;100.00
8627;BME280;4351;51.422;6.794;2023-02-26T04:34:02;101832.06;;;0.33;100.00
8627;BME280;4351;51.422;6.794;2023-02-26T04:36:30;101835.59;;;0.59;100.00
8627;BME280;4351;51.422;6.794;2023-02-26T04:38:59;101835.59;;;0.51;100.00
8627;BME280;4351;51.422;6.794;2023-02-26T04:41:29;101838.25;;;0.57;100.00
8627;BME280;4351;51.422;6.794;2023-02-26T04:43:57;101842.69;;;0.51;100.00
8627;BME280;4351;51.422;6.794;2023-02-26T04:46:29;101847.97;;;0.18;100.00
8627;BME280;4351;51.422;6.794;2023-02-26T04:49:01;101846.22;;;0.36;100.00
8627;BME280;4351;51.422;6.794;2023-02-26T04:51:30;101848.88;;;0.23;100.00
8627;BME280;4351;51.422;6.794;2023-02-26T04:53:59;101854.19;;;0.20;100.00
8627;BME280;4351;51.422;6.794;2023-02-26T04:56:27;101856.84;;;0.04;100.00
8627;BME280;4351;51.422;6.794;2023-02-26T04:58:57;101862.16;;;0.21;100.00
8627;BME280;4351;51.422;6.794;2023-02-26T05:01:29;101857.72;;;0.66;100.00
8627;BME280;4351;51.422;6.794;2023-02-26T05:03:58;101873.69;;;0.41;100.00
8627;BME280;4351;51.422;6.794;2023-02-26T05:06:27;101871.91;;;0.24;100.00
8627;BME280;4351;51.422;6.794;2023-02-26T05:09:00;101864.81;;;0.10;100.00
8627;BME280;4351;51.422;6.794;2023-02-26T05:11:29;101870.09;;;0.20;100.00
8627;BME280;4351;51.422;6.794;2023-02-26T05:13:58;101873.63;;;0.05;100.00
8627;BME280;4351;51.422;6.794;2023-02-26T05:16:27;101882.47;;;0.05;100.00
8627;BME280;4351;51.422;6.794;2023-02-26T05:19:01;101880.72;;;0.12;100.00
8627;BME280;4351;51.422;6.794;2023-02-26T05:21:29;101888.69;;;0.20;100.00
8627;BME280;4351;51.422;6.794;2023-02-26T05:23:57;101884.22;;;-0.08;100.00
8627;BME280;4351;51.422;6.794;2023-02-26T05:26:29;101891.31;;;0.07;100.00
8627;BME280;4351;51.422;6.794;2023-02-26T05:29:04;101888.66;;;0.03;100.00
8627;BME280;4351;51.422;6.794;2023-02-26T05:31:34;101892.19;;;-0.02;100.00
8627;BME280;4351;51.422;6.794;2023-02-26T05:34:02;101889.56;;;0.00;100.00
8627;BME280;4351;51.422;6.794;2023-02-26T05:36:29;101892.19;;;-0.02;100.00
8627;BME280;4351;51.422;6.794;2023-02-26T05:38:57;101903.72;;;0.11;100.00
8627;BME280;4351;51.422;6.794;2023-02-26T05:41:27;101893.09;;;0.01;100.00
8627;BME280;4351;51.422;6.794;2023-02-26T05:43:55;101896.66;;;0.10;100.00
8627;BME280;4351;51.422;6.794;2023-02-26T05:46:27;101898.38;;;-0.04;100.00
8627;BME280;4351;51.422;6.794;2023-02-26T05:48:55;101905.41;;;-0.19;100.00
8627;BME280;4351;51.422;6.794;2023-02-26T05:51:24;101912.47;;;-0.27;100.00
8627;BME280;4351;51.422;6.794;2023-02-26T05:53:52;101912.38;;;-0.49;100.00
8627;BME280;4351;51.422;6.794;2023-02-26T05:56:21;101915.94;;;-0.41;100.00
8627;BME280;4351;51.422;6.794;2023-02-26T05:58:55;101921.31;;;-0.33;100.00
8627;BME280;4351;51.422;6.794;2023-02-26T06:01:26;101930.16;;;-0.25;100.00
8627;BME280;4351;51.422;6.794;2023-02-26T06:03:54;101942.56;;;-0.13;100.00
8627;BME280;4351;51.422;6.794;2023-02-26T06:06:22;101936.31;;;-0.30;100.00
8627;BME280;4351;51.422;6.794;2023-02-26T06:08:53;101940.72;;;-0.40;100.00
8627;BME280;4351;51.422;6.794;2023-02-26T06:11:24;101942.50;;;-0.28;100.00
8627;BME280;4351;51.422;6.794;2023-02-26T06:13:52;101949.66;;;-0.10;100.00
8627;BME280;4351;51.422;6.794;2023-02-26T06:16:22;101950.53;;;-0.17;100.00
8627;BME280;4351;51.422;6.794;2023-02-26T06:18:51;101954.06;;;-0.25;100.00
8627;BME280;4351;51.422;6.794;2023-02-26T06:21:19;101958.38;;;-0.44;100.00
8627;BME280;4351;51.422;6.794;2023-02-26T06:23:47;101965.47;;;-0.37;100.00
8627;BME280;4351;51.422;6.794;2023-02-26T06:26:15;101974.34;;;-0.31;100.00
8627;BME280;4351;51.422;6.794;2023-02-26T06:28:44;101973.38;;;-0.46;100.00
8627;BME280;4351;51.422;6.794;2023-02-26T06:31:12;101982.38;;;-0.22;100.00
8627;BME280;4351;51.422;6.794;2023-02-26T06:33:42;101983.28;;;-0.14;100.00
8627;BME280;4351;51.422;6.794;2023-02-26T06:36:11;101983.34;;;0.04;100.00
8627;BME280;4351;51.422;6.794;2023-02-26T06:38:39;101982.41;;;-0.11;100.00
8627;BME280;4351;51.422;6.794;2023-02-26T06:41:08;101988.56;;;-0.20;100.00
8627;BME280;4351;51.422;6.794;2023-02-26T06:43:40;101990.34;;;-0.13;100.00
8627;BME280;4351;51.422;6.794;2023-02-26T06:46:10;101993.03;;;-0.02;100.00
8627;BME280;4351;51.422;6.794;2023-02-26T06:48:38;101997.41;;;-0.15;100.00
8627;BME280;4351;51.422;6.794;2023-02-26T06:51:13;102007.97;;;-0.24;100.00
8627;BME280;4351;51.422;6.794;2023-02-26T06:53:44;102017.75;;;-0.20;100.00
8627;BME280;4351;51.422;6.794;2023-02-26T06:56:13;102016.84;;;-0.19;100.00
8627;BME280;4351;51.422;6.794;2023-02-26T06:58:41;102025.72;;;-0.12;100.00
8627;BME280;4351;51.422;6.794;2023-02-26T07:01:09;102031.91;;;-0.18;100.00
8627;BME280;4351;51.422;6.794;2023-02-26T07:03:38;102036.28;;;-0.23;100.00
8627;BME280;4351;51.422;6.794;2023-02-26T07:06:08;102038.03;;;-0.25;100.00
8627;BME280;4351;51.422;6.794;2023-02-26T07:08:52;102047.00;;;0.01;100.00
8627;BME280;4351;51.422;6.794;2023-02-26T07:11:20;102050.56;;;0.01;100.00
8627;BME280;4351;51.422;6.794;2023-02-26T07:13:49;102051.47;;;0.11;100.00
8627;BME280;4351;51.422;6.794;2023-02-26T07:16:18;102052.38;;;0.15;100.00
8627;BME280;4351;51.422;6.794;2023-02-26T07:18:46;102052.53;;;0.59;100.00
8627;BME280;4351;51.422;6.794;2023-02-26T07:21:17;102063.22;;;1.09;100.00
8627;BME280;4351;51.422;6.794;2023-02-26T07:23:45;102066.75;;;0.94;100.00
8627;BME280;4351;51.422;6.794;2023-02-26T07:26:13;102065.00;;;1.30;100.00
8627;BME280;4351;51.422;6.794;2023-02-26T07:28:42;102068.50;;;1.56;100.00
8627;BME280;4351;51.422;6.794;2023-02-26T07:31:11;102073.84;;;1.59;100.00
8627;BME280;4351;51.422;6.794;2023-02-26T07:33:39;102063.16;;;1.84;100.00
8627;BME280;4351;51.422;6.794;2023-02-26T07:36:07;102072.09;;;1.36;100.00
8627;BME280;4351;51.422;6.794;2023-02-26T07:38:36;102064.06;;;1.74;100.00
8627;BME280;4351;51.422;6.794;2023-02-26T07:41:05;102073.78;;;1.90;100.00
8627;BME280;4351;51.422;6.794;2023-02-26T07:43:33;102074.53;;;2.28;100.00
8627;BME280;4351;51.422;6.794;2023-02-26T07:46:01;102090.84;;;3.23;100.00
8627;BME280;4351;51.422;6.794;2023-02-26T07:48:29;102080.53;;;2.76;100.00
8627;BME280;4351;51.422;6.794;2023-02-26T07:50:57;102084.75;;;3.05;100.00
8627;BME280;4351;51.422;6.794;2023-02-26T07:53:25;102087.97;;;3.48;100.00
8627;BME280;4351;51.422;6.794;2023-02-26T07:55:55;102090.59;;;3.54;100.00
8627;BME280;4351;51.422;6.794;2023-02-26T07:58:23;102093.00;;;3.81;100.00
8627;BME280;4351;51.422;6.794;2023-02-26T08:00:51;102095.31;;;4.14;100.00
8627;BME280;4351;51.422;6.794;2023-02-26T08:03:19;102097.13;;;4.12;100.00
8627;BME280;4351;51.422;6.794;2023-02-26T08:05:48;102102.91;;;3.68;100.00
8627;BME280;4351;51.422;6.794;2023-02-26T08:08:16;102110.81;;;3.79;100.00
8627;BME280;4351;51.422;6.794;2023-02-26T08:10:44;102101.25;;;3.56;100.00
8627;BME280;4351;51.422;6.794;2023-02-26T08:13:14;102102.06;;;3.63;100.00
8627;BME280;4351;51.422;6.794;2023-02-26T08:15:42;102104.84;;;3.50;100.00
8627;BME280;4351;51.422;6.794;2023-02-26T08:18:10;102097.63;;;3.60;100.00
8627;BME280;4351;51.422;6.794;2023-02-26T08:20:39;102098.31;;;3.83;100.00
8627;BME280;4351;51.422;6.794;2023-02-26T08:23:08;102103.00;;;3.59;100.00
8627;BME280;4351;51.422;6.794;2023-02-26T08:25:36;102112.44;;;3.94;100.00
8627;BME280;4351;51.422;6.794;2023-02-26T08:28:04;102109.44;;;3.34;100.00
8627;BME280;4351;51.422;6.794;2023-02-26T08:30:34;102111.94;;;3.51;100.00
8627;BME280;4351;51.422;6.794;2023-02-26T08:33:02;102120.41;;;3.97;100.00
8627;BME280;4351;51.422;6.794;2023-02-26T08:35:31;102129.38;;;3.91;100.00
8627;BME280;4351;51.422;6.794;2023-02-26T08:37:59;102130.84;;;4.19;100.00
8627;BME280;4351;51.422;6.794;2023-02-26T08:40:28;102128.03;;;4.33;100.00
8627;BME280;4351;51.422;6.794;2023-02-26T08:42:56;102126.41;;;4.91;100.00
8627;BME280;4351;51.422;6.794;2023-02-26T08:45:26;102141.31;;;5.08;100.00
8627;BME280;4351;51.422;6.794;2023-02-26T08:47:55;102135.41;;;4.83;100.00
8627;BME280;4351;51.422;6.794;2023-02-26T08:50:23;102132.69;;;4.88;100.00
8627;BME280;4351;51.422;6.794;2023-02-26T08:52:52;102137.00;;;4.97;100.00
8627;BME280;4351;51.422;6.794;2023-02-26T08:55:20;102138.31;;;4.66;100.00
8627;BME280;4351;51.422;6.794;2023-02-26T08:57:52;102136.09;;;4.32;100.00
8627;BME280;4351;51.422;6.794;2023-02-26T09:00:21;102144.47;;;3.99;100.00
8627;BME280;4351;51.422;6.794;2023-02-26T09:02:50;102155.47;;;4.50;100.00
8627;BME280;4351;51.422;6.794;2023-02-26T09:05:20;102157.31;;;4.41;100.00
8627;BME280;4351;51.422;6.794;2023-02-26T09:07:48;102159.06;;;4.45;100.00
8627;BME280;4351;51.422;6.794;2023-02-26T09:10:17;102169.88;;;4.36;100.00
8627;BME280;4351;51.422;6.794;2023-02-26T09:12:45;102174.47;;;4.23;100.00
8627;BME280;4351;51.422;6.794;2023-02-26T09:15:13;102173.88;;;3.91;100.00
8627;BME280;4351;51.422;6.794;2023-02-26T09:17:41;102173.38;;;4.40;100.00
8627;BME280;4351;51.422;6.794;2023-02-26T09:20:11;102168.78;;;4.53;100.00
8627;BME280;4351;51.422;6.794;2023-02-26T09:22:41;102177.28;;;4.09;100.00
8627;BME280;4351;51.422;6.794;2023-02-26T09:25:10;102180.75;;;4.17;100.00
8627;BME280;4351;51.422;6.794;2023-02-26T09:27:37;102189.63;;;4.19;100.00
8627;BME280;4351;51.422;6.794;2023-02-26T09:30:06;102191.16;;;4.44;100.00
8627;BME280;4351;51.422;6.794;2023-02-26T09:32:34;102184.84;;;4.51;100.00
8627;BME280;4351;51.422;6.794;2023-02-26T09:35:03;102182.38;;;4.34;100.00
8627;BME280;4351;51.422;6.794;2023-02-26T09:37:31;102185.75;;;4.48;100.00
8627;BME280;4351;51.422;6.794;2023-02-26T09:40:01;102192.56;;;4.78;100.00
8627;BME280;4351;51.422;6.794;2023-02-26T09:42:39;102194.19;;;4.88;100.00
8627;BME280;4351;51.422;6.794;2023-02-26T09:45:18;102194.38;;;4.72;100.00
8627;BME280;4351;51.422;6.794;2023-02-26T09:47:52;102200.50;;;4.81;100.00
8627;BME280;4351;51.422;6.794;2023-02-26T09:50:23;102201.91;;;5.12;100.00
8627;BME280;4351;51.422;6.794;2023-02-26T09:52:53;102195.84;;;4.99;100.00
8627;BME280;4351;51.422;6.794;2023-02-26T09:55:29;102206.78;;;4.80;100.00
8627;BME280;4351;51.422;6.794;2023-02-26T09:57:58;102207.84;;;4.63;100.00
8627;BME280;4351;51.422;6.794;2023-02-26T10:00:33;102217.00;;;4.45;100.00
8627;BME280;4351;51.422;6.794;2023-02-26T10:03:15;102226.06;;;4.30;100.00
8627;BME280;4351;51.422;6.794;2023-02-26T10:06:05;102221.63;;;4.29;100.00
8627;BME280;4351;51.422;6.794;2023-02-26T10:08:39;102223.44;;;4.23;100.00
8627;BME280;4351;51.422;6.794;2023-02-26T10:11:19;102229.19;;;3.78;100.00
8627;BME280;4351;51.422;6.794;2023-02-26T10:13:54;102237.97;;;3.94;100.00
8627;BME280;4351;51.422;6.794;2023-02-26T10:16:26;102229.84;;;4.07;100.00
8627;BME280;4351;51.422;6.794;2023-02-26T10:18:59;102229.22;;;3.76;100.00
8627;BME280;4351;51.422;6.794;2023-02-26T10:21:32;102233.09;;;4.39;100.00
8627;BME280;4351;51.422;6.794;2023-02-26T10:24:08;102242.50;;;4.76;100.00
8627;BME280;4351;51.422;6.794;2023-02-26T10:26:43;102241.75;;;4.61;100.00
8627;BME280;4351;51.422;6.794;2023-02-26T10:29:17;102244.56;;;4.48;100.00
8627;BME280;4351;51.422;6.794;2023-02-26T10:31:58;102246.88;;;4.81;100.00
8627;BME280;4351;51.422;6.794;2023-02-26T10:34:30;102247.31;;;4.42;100.00
8627;BME280;4351;51.422;6.794;2023-02-26T10:37:09;102240.34;;;4.24;100.00
8627;BME280;4351;51.422;6.794;2023-02-26T10:39:43;102244.72;;;4.36;100.00
8627;BME280;4351;51.422;6.794;2023-02-26T10:42:19;102245.25;;;4.69;100.00
8627;BME280;4351;51.422;6.794;2023-02-26T10:44:56;102256.31;;;4.33;100.00
8627;BME280;4351;51.422;6.794;2023-02-26T10:47:33;102257.03;;;4.50;100.00
8627;BME280;4351;51.422;6.794;2023-02-26T10:50:05;102258.13;;;4.28;100.00
8627;BME280;4351;51.422;6.794;2023-02-26T10:52:36;102264.25;;;4.40;100.00
8627;BME280;4351;51.422;6.794;2023-02-26T10:55:18;102258.63;;;4.68;100.00
8627;BME280;4351;51.422;6.794;2023-02-26T10:57:55;102252.50;;;4.55;100.00
8627;BME280;4351;51.422;6.794;2023-02-26T11:00:26;102262.25;;;4.62;100.00
8627;BME280;4351;51.422;6.794;2023-02-26T11:02:55;102270.72;;;4.99;100.00
8627;BME280;4351;51.422;6.794;2023-02-26T11:05:25;102274.00;;;4.47;100.00
8627;BME280;4351;51.422;6.794;2023-02-26T11:07:56;102276.88;;;4.25;100.00
8627;BME280;4351;51.422;6.794;2023-02-26T11:10:29;102270.81;;;4.06;100.00
8627;BME280;4351;51.422;6.794;2023-02-26T11:12:59;102277.88;;;4.14;100.00
8627;BME280;4351;51.422;6.794;2023-02-26T11:15:27;102279.63;;;4.12;100.00
8627;BME280;4351;51.422;6.794;2023-02-26T11:17:57;102284.09;;;4.17;100.00
8627;BME280;4351;51.422;6.794;2023-02-26T11:20:34;102285.81;;;4.22;100.00
8627;BME280;4351;51.422;6.794;2023-02-26T11:23:06;102286.00;;;4.00;100.00
8627;BME280;4351;51.422;6.794;2023-02-26T11:25:39;102286.34;;;4.59;100.00
8627;BME280;4351;51.422;6.794;2023-02-26T11:28:29;102287.66;;;4.11;100.00
8627;BME280;4351;51.422;6.794;2023-02-26T11:31:00;102285.63;;;4.41;100.00
8627;BME280;4351;51.422;6.794;2023-02-26T11:33:35;102281.41;;;5.02;100.00
8627;BME280;4351;51.422;6.794;2023-02-26T11:36:08;102279.88;;;4.79;100.00
8627;BME280;4351;51.422;6.794;2023-02-26T11:38:36;102269.91;;;4.93;100.00
8627;BME280;4351;51.422;6.794;2023-02-26T11:41:05;102273.09;;;5.22;100.00
8627;BME280;4351;51.422;6.794;2023-02-26T11:43:39;102281.53;;;4.91;100.00
8627;BME280;4351;51.422;6.794;2023-02-26T11:46:11;102283.50;;;4.75;100.00
8627;BME280;4351;51.422;6.794;2023-02-26T11:48:46;102272.03;;;4.63;100.00
8627;BME280;4351;51.422;6.794;2023-02-26T11:51:19;102273.75;;;4.67;100.00
8627;BME280;4351;51.422;6.794;2023-02-26T11:53:50;102263.66;;;4.94;100.00
8627;BME280;4351;51.422;6.794;2023-02-26T11:56:24;102264.38;;;5.08;100.00
8627;BME280;4351;51.422;6.794;2023-02-26T11:58:57;102260.84;;;5.05;100.00
8627;BME280;4351;51.422;6.794;2023-02-26T12:01:28;102256.69;;;4.79;100.00
8627;BME280;4351;51.422;6.794;2023-02-26T12:04:00;102247.25;;;5.21;100.00
8627;BME280;4351;51.422;6.794;2023-02-26T12:06:29;102234.16;;;4.99;100.00
8627;BME280;4351;51.422;6.794;2023-02-26T12:08:57;102245.31;;;5.31;100.00
8627;BME280;4351;51.422;6.794;2023-02-26T12:11:38;102242.84;;;5.18;100.00
8627;BME280;4351;51.422;6.794;2023-02-26T12:14:22;102235.25;;;5.50;100.00
8627;BME280;4351;51.422;6.794;2023-02-26T12:17:03;102243.19;;;5.55;100.00
8627;BME280;4351;51.422;6.794;2023-02-26T12:19:40;102231.25;;;5.78;100.00
8627;BME280;4351;51.422;6.794;2023-02-26T12:22:40;102224.56;;;6.07;100.00
8627;BME280;4351;51.422;6.794;2023-02-26T12:25:26;102228.09;;;6.08;100.00
8627;BME280;4351;51.422;6.794;2023-02-26T12:31:03;102252.97;;;5.58;100.00
8627;BME280;4351;51.422;6.794;2023-02-26T12:33:47;102246.13;;;5.39;100.00
8627;BME280;4351;51.422;6.794;2023-02-26T12:36:25;102250.44;;;5.50;100.00
8627;BME280;4351;51.422;6.794;2023-02-26T12:39:24;102247.84;;;5.42;100.00
8627;BME280;4351;51.422;6.794;2023-02-26T12:42:03;102243.59;;;5.87;100.00
8627;BME280;4351;51.422;6.794;2023-02-26T12:45:03;102242.09;;;5.70;100.00
8627;BME280;4351;51.422;6.794;2023-02-26T12:47:42;102244.38;;;5.94;100.00
8627;BME280;4351;51.422;6.794;2023-02-26T12:50:23;102237.88;;;6.11;100.00
8627;BME280;4351;51.422;6.794;2023-02-26T12:53:24;102243.91;;;6.25;100.00
8627;BME280;4351;51.422;6.794;2023-02-26T12:56:15;102236.50;;;6.37;100.00
8627;BME280;4351;51.422;6.794;2023-02-26T12:59:04;102231.03;;;5.92;100.00
8627;BME280;4351;51.422;6.794;2023-02-26T13:01:47;102254.75;;;5.59;100.00
8627;BME280;4351;51.422;6.794;2023-02-26T13:04:47;102258.22;;;5.02;100.00
8627;BME280;4351;51.422;6.794;2023-02-26T13:07:27;102247.13;;;5.32;100.00
8627;BME280;4351;51.422;6.794;2023-02-26T13:10:03;102259.56;;;5.35;100.00
8627;BME280;4351;51.422;6.794;2023-02-26T13:12:41;102248.59;;;5.54;100.00
8627;BME280;4351;51.422;6.794;2023-02-26T13:15:25;102257.88;;;5.27;100.00
8627;BME280;4351;51.422;6.794;2023-02-26T13:18:00;102276.13;;;4.97;100.00
8627;BME280;4351;51.422;6.794;2023-02-26T13:20:33;102266.88;;;5.20;100.00
8627;BME280;4351;51.422;6.794;2023-02-26T13:23:09;102293.56;;;5.90;100.00
8627;BME280;4351;51.422;6.794;2023-02-26T13:25:41;102249.41;;;5.59;100.00
8627;BME280;4351;51.422;6.794;2023-02-26T13:28:21;102230.69;;;5.56;100.00
8627;BME280;4351;51.422;6.794;2023-02-26T13:30:52;102233.84;;;5.83;100.00
8627;BME280;4351;51.422;6.794;2023-02-26T13:33:23;102242.78;;;5.83;100.00
8627;BME280;4351;51.422;6.794;2023-02-26T13:35:55;102237.44;;;5.82;100.00
8627;BME280;4351;51.422;6.794;2023-02-26T13:38:31;102234.28;;;5.56;100.00
8627;BME280;4351;51.422;6.794;2023-02-26T13:41:08;102241.00;;;5.82;100.00
8627;BME280;4351;51.422;6.794;2023-02-26T13:43:51;102245.50;;;5.80;100.00